Terminal Aerodrome Forecast
Issued by NWS

Home | Current Version | Previous Version | Graphics & Text | Print | Product List | Glossary Off
Versions: 1 2 3 4 5 6 7 8 9 10 11 12 13 14 15 16 17 18

000
FTUS43 KABR 011100
TAFMBG
TAF
KMBG 011122Z 0112/0212 VRB06KT P6SM BKN200
     FM011500 28006KT P6SM BKN050
     FM011800 32012G20KT P6SM BKN050=

USA.gov is the U.S. government's official web portal to all federal, state and local government web resources and services.